createdAt,value
2022-09-17T00:01:01.324Z,-53
2022-09-17T00:02:07.614Z,-52
2022-09-17T00:03:13.776Z,-52
2022-09-17T00:04:19.160Z,-51
2022-09-17T00:05:24.471Z,-52
2022-09-17T00:06:29.771Z,-50
2022-09-17T00:07:34.947Z,-52
2022-09-17T00:08:41.340Z,-51
2022-09-17T00:09:47.620Z,-52
2022-09-17T00:10:53.896Z,-53
2022-09-17T00:12:00.163Z,-52
2022-09-17T00:13:06.450Z,-52
2022-09-17T00:14:12.598Z,-53
2022-09-17T00:15:18.873Z,-53
2022-09-17T00:16:25.254Z,-53
2022-09-17T00:17:31.413Z,-53
2022-09-17T00:18:37.787Z,-54
2022-09-17T00:19:43.943Z,-52
2022-09-17T00:20:50.282Z,-53
2022-09-17T00:21:55.607Z,-54
2022-09-17T00:23:01.922Z,-53
2022-09-17T00:24:08.046Z,-53
2022-09-17T00:25:14.459Z,-53
2022-09-17T00:26:20.756Z,-53
2022-09-17T00:27:26.961Z,-53
2022-09-17T00:28:33.227Z,-53
2022-09-17T00:29:38.430Z,-53
2022-09-17T00:30:43.770Z,-53
2022-09-17T00:31:49.023Z,-53
2022-09-17T00:32:54.365Z,-53
2022-09-17T00:34:00.727Z,-53
2022-09-17T00:35:06.962Z,-53
2022-09-17T00:36:13.267Z,-55
2022-09-17T00:37:19.486Z,-54
2022-09-17T00:38:25.805Z,-53
2022-09-17T00:39:32.059Z,-53
2022-09-17T00:40:38.209Z,-53
2022-09-17T00:41:44.583Z,-54
2022-09-17T00:42:50.761Z,-54
2022-09-17T00:43:57.157Z,-53
2022-09-17T00:45:03.338Z,-53
2022-09-17T00:46:09.571Z,-54
2022-09-17T00:47:14.947Z,-53
2022-09-17T00:48:21.259Z,-54
2022-09-17T00:49:27.420Z,-53
2022-09-17T00:50:33.818Z,-54
2022-09-17T00:51:39.954Z,-53
2022-09-17T00:52:46.336Z,-54
2022-09-17T00:53:52.595Z,-53
2022-09-17T00:54:57.850Z,-53
2022-09-17T00:56:03.173Z,-53
2022-09-17T00:57:09.401Z,-53
2022-09-17T00:58:15.750Z,-54
2022-09-17T00:59:21.986Z,-53
2022-09-17T01:00:28.270Z,-53
2022-09-17T01:01:34.559Z,-55
2022-09-17T01:02:40.813Z,-54
2022-09-17T01:03:46.987Z,-53
2022-09-17T01:04:53.263Z,-55
2022-09-17T01:05:59.547Z,-54
2022-09-17T01:07:05.926Z,-55
2022-09-17T01:08:12.087Z,-53
2022-09-17T01:09:18.350Z,-54
2022-09-17T01:10:23.726Z,-55
2022-09-17T01:11:30.059Z,-54
2022-09-17T01:12:36.244Z,-54
2022-09-17T01:13:42.558Z,-56
2022-09-17T01:14:48.762Z,-54
2022-09-17T01:15:54.995Z,-54
2022-09-17T01:17:01.377Z,-53
2022-09-17T01:18:06.684Z,-53
2022-09-17T01:19:11.902Z,-54
2022-09-17T01:20:18.182Z,-55
2022-09-17T01:21:24.420Z,-53
2022-09-17T01:22:30.763Z,-55
2022-09-17T01:23:36.961Z,-56
2022-09-17T01:24:43.272Z,-54
2022-09-17T01:25:49.642Z,-56
2022-09-17T01:26:55.763Z,-54
2022-09-17T01:28:02.143Z,-55
2022-09-17T01:29:08.309Z,-53
2022-09-17T01:30:14.713Z,-54
2022-09-17T01:31:20.949Z,-56
2022-09-17T01:32:27.206Z,-58
2022-09-17T01:33:32.577Z,-54
2022-09-17T01:34:38.781Z,-55
2022-09-17T01:35:44.957Z,-56
2022-09-17T01:36:51.299Z,-55
2022-09-17T01:37:57.637Z,-54
2022-09-17T01:39:03.777Z,-55
2022-09-17T01:40:10.164Z,-54
2022-09-17T01:41:15.477Z,-55
2022-09-17T01:42:20.765Z,-54
2022-09-17T01:43:26.013Z,-55
2022-09-17T01:44:31.348Z,-54
2022-09-17T01:45:37.624Z,-55
2022-09-17T01:46:43.862Z,-56
2022-09-17T01:47:50.041Z,-54
2022-09-17T01:48:56.311Z,-56
2022-09-17T01:50:01.731Z,-56
2022-09-17T01:51:07.931Z,-56
2022-09-17T01:52:14.274Z,-55
2022-09-17T01:53:20.553Z,-56
2022-09-17T01:54:26.809Z,-56
2022-09-17T01:55:33.099Z,-55
2022-09-17T01:56:39.361Z,-53
2022-09-17T01:57:45.595Z,-55
2022-09-17T01:58:51.913Z,-56
2022-09-17T01:59:58.174Z,-55
2022-09-17T02:01:04.349Z,-56
2022-09-17T02:02:10.727Z,-55
2022-09-17T02:03:17.020Z,-56
2022-09-17T02:04:22.265Z,-55
2022-09-17T02:05:28.565Z,-56
2022-09-17T02:06:33.861Z,-56
2022-09-17T02:07:39.020Z,-56
2022-09-17T02:08:44.447Z,-54
2022-09-17T02:09:49.724Z,-55
2022-09-17T02:10:55.034Z,-55
2022-09-17T02:12:00.324Z,-55
2022-09-17T02:13:06.465Z,-56
2022-09-17T02:14:12.740Z,-56
2022-09-17T02:15:19.149Z,-56
2022-09-17T02:16:25.338Z,-57
2022-09-17T02:17:31.647Z,-56
2022-09-17T02:18:37.946Z,-56
2022-09-17T02:19:44.223Z,-53
2022-09-17T02:20:50.520Z,-54
2022-09-17T02:21:56.760Z,-55
2022-09-17T02:23:03.040Z,-56
2022-09-17T02:24:09.295Z,-55
2022-09-17T02:25:15.532Z,-55
2022-09-17T02:26:20.867Z,-55
2022-09-17T02:27:27.083Z,-56
2022-09-17T02:28:33.351Z,-56
2022-09-17T02:29:39.570Z,-56
2022-09-17T02:30:45.908Z,-53
2022-09-17T02:31:52.215Z,-56
2022-09-17T02:32:58.554Z,-56
2022-09-17T02:34:03.753Z,-55
2022-09-17T02:35:08.971Z,-55
2022-09-17T02:36:14.380Z,-56
2022-09-17T02:37:19.675Z,-56
2022-09-17T02:38:24.970Z,-56
2022-09-17T02:39:30.284Z,-54
2022-09-17T02:40:36.584Z,-56
2022-09-17T02:41:42.812Z,-55
2022-09-17T02:42:49.058Z,-54
2022-09-17T02:43:55.327Z,-56
2022-09-17T02:45:01.506Z,-55
2022-09-17T02:46:07.807Z,-56
2022-09-17T02:47:14.173Z,-56
2022-09-17T02:48:20.448Z,-56
2022-09-17T02:49:26.594Z,-56
2022-09-17T02:50:32.904Z,-55
2022-09-17T02:51:39.151Z,-55
2022-09-17T02:52:45.521Z,-55
2022-09-17T02:53:50.748Z,-53
2022-09-17T02:54:57.097Z,-56
2022-09-17T02:56:03.304Z,-56
2022-09-17T02:57:09.630Z,-57
2022-09-17T02:58:15.890Z,-54
2022-09-17T02:59:22.122Z,-55
2022-09-17T03:00:28.433Z,-56
2022-09-17T03:01:33.744Z,-56
2022-09-17T03:02:39.043Z,-56
2022-09-17T03:03:44.360Z,-55
2022-09-17T03:04:49.610Z,-55
2022-09-17T03:05:55.806Z,-56
2022-09-17T03:07:02.198Z,-55
2022-09-17T03:08:08.390Z,-53
2022-09-17T03:09:14.742Z,-56
2022-09-17T03:10:21.000Z,-56
2022-09-17T03:11:27.145Z,-56
2022-09-17T03:12:33.470Z,-57
2022-09-17T03:13:39.821Z,-55
2022-09-17T03:14:45.962Z,-54
2022-09-17T03:15:52.265Z,-56
2022-09-17T03:16:58.621Z,-56
2022-09-17T03:18:04.788Z,-57
2022-09-17T03:19:10.221Z,-56
2022-09-17T03:20:16.491Z,-56
2022-09-17T03:21:22.729Z,-56
2022-09-17T03:22:28.978Z,-56
2022-09-17T03:23:35.271Z,-56
2022-09-17T03:24:41.424Z,-56
2022-09-17T03:25:47.834Z,-57
2022-09-17T03:26:53.160Z,-56
2022-09-17T03:27:58.283Z,-57
2022-09-17T03:29:03.583Z,-56
2022-09-17T03:30:08.964Z,-56
2022-09-17T03:31:15.145Z,-56
2022-09-17T03:32:21.563Z,-57
2022-09-17T03:33:27.684Z,-57
2022-09-17T03:34:33.976Z,-56
2022-09-17T03:35:40.361Z,-57
2022-09-17T03:36:46.501Z,-56
2022-09-17T03:37:52.912Z,-56
2022-09-17T03:38:59.114Z,-57
2022-09-17T03:40:05.323Z,-59
2022-09-17T03:41:11.739Z,-56
2022-09-17T03:42:18.007Z,-56
2022-09-17T03:43:24.188Z,-56
2022-09-17T03:44:29.554Z,-57
2022-09-17T03:45:35.692Z,-57
2022-09-17T03:46:42.012Z,-57
2022-09-17T03:47:48.237Z,-57
2022-09-17T03:48:54.608Z,-56
2022-09-17T03:50:00.915Z,-56
2022-09-17T03:51:07.176Z,-56
2022-09-17T03:52:12.367Z,-56
2022-09-17T03:53:17.637Z,-56
2022-09-17T03:54:23.915Z,-56
2022-09-17T03:55:30.267Z,-56
2022-09-17T03:56:36.584Z,-56
2022-09-17T03:57:42.739Z,-57
2022-09-17T03:58:49.005Z,-57
2022-09-17T03:59:55.413Z,-57
2022-09-17T04:01:01.650Z,-57
2022-09-17T04:02:07.945Z,-56
2022-09-17T04:03:14.095Z,-57
2022-09-17T04:04:20.365Z,-57
2022-09-17T04:05:26.756Z,-56
2022-09-17T04:06:33.035Z,-58
2022-09-17T04:07:38.332Z,-56
2022-09-17T04:08:44.619Z,-56
2022-09-17T04:09:50.893Z,-57
2022-09-17T04:10:57.032Z,-56
2022-09-17T04:12:03.400Z,-55
2022-09-17T04:13:09.689Z,-56
2022-09-17T04:14:15.943Z,-56
2022-09-17T04:15:21.236Z,-57
2022-09-17T04:16:26.559Z,-57
2022-09-17T04:17:32.783Z,-56
2022-09-17T04:18:38.957Z,-57
2022-09-17T04:19:45.246Z,-56
2022-09-17T04:20:51.609Z,-57
2022-09-17T04:21:57.909Z,-57
2022-09-17T04:23:04.189Z,-57
2022-09-17T04:24:10.377Z,-56
2022-09-17T04:25:16.692Z,-57
2022-09-17T04:26:22.969Z,-57
2022-09-17T04:27:29.257Z,-57
2022-09-17T04:28:35.410Z,-56
2022-09-17T04:29:41.808Z,-58
2022-09-17T04:30:47.120Z,-58
2022-09-17T04:31:53.358Z,-57
2022-09-17T04:32:59.623Z,-57
2022-09-17T04:34:05.926Z,-58
2022-09-17T04:35:12.153Z,-59
2022-09-17T04:36:18.446Z,-57
2022-09-17T04:37:24.742Z,-57
2022-09-17T04:38:29.980Z,-58
2022-09-17T04:39:35.308Z,-57
2022-09-17T04:40:40.583Z,-58
2022-09-17T04:41:45.861Z,-58
2022-09-17T04:42:51.170Z,-56
2022-09-17T04:43:56.445Z,-58
2022-09-17T04:45:02.758Z,-58
2022-09-17T04:46:08.963Z,-57
2022-09-17T04:47:15.285Z,-59
2022-09-17T04:48:21.445Z,-58
2022-09-17T04:49:27.833Z,-58
2022-09-17T04:50:34.124Z,-58
2022-09-17T04:51:40.277Z,-57
2022-09-17T04:52:46.673Z,-58
2022-09-17T04:53:52.883Z,-59
2022-09-17T04:54:59.118Z,-56
2022-09-17T04:56:05.397Z,-57
2022-09-17T04:57:11.747Z,-58
2022-09-17T04:58:17.046Z,-58
2022-09-17T04:59:23.325Z,-56
2022-09-17T05:00:29.600Z,-58
2022-09-17T05:01:35.858Z,-59
2022-09-17T05:02:42.143Z,-57
2022-09-17T05:03:48.416Z,-59
2022-09-17T05:04:54.646Z,-58
2022-09-17T05:05:59.992Z,-58
2022-09-17T05:07:05.340Z,-59
2022-09-17T05:08:10.464Z,-58
2022-09-17T05:09:15.855Z,-59
2022-09-17T05:10:22.109Z,-59
2022-09-17T05:11:28.268Z,-59
2022-09-17T05:12:34.611Z,-59
2022-09-17T05:13:40.922Z,-60
2022-09-17T05:14:47.079Z,-58
2022-09-17T05:15:53.359Z,-59
2022-09-17T05:16:59.656Z,-59
2022-09-17T05:18:06.036Z,-59
2022-09-17T05:19:12.307Z,-59
2022-09-17T05:20:18.444Z,-59
2022-09-17T05:21:24.719Z,-59
2022-09-17T05:22:31.119Z,-59
2022-09-17T05:23:36.423Z,-59
2022-09-17T05:24:42.542Z,-59
2022-09-17T05:25:48.840Z,-59
2022-09-17T05:26:55.088Z,-59
2022-09-17T05:28:01.504Z,-59
2022-09-17T05:29:07.641Z,-59
2022-09-17T05:30:13.911Z,-58
2022-09-17T05:31:19.216Z,-58
2022-09-17T05:32:24.639Z,-59
2022-09-17T05:33:30.773Z,-59
2022-09-17T05:34:37.049Z,-59
2022-09-17T05:35:43.318Z,-59
2022-09-17T05:36:49.631Z,-59
2022-09-17T05:37:55.980Z,-59
2022-09-17T05:39:02.257Z,-59
2022-09-17T05:40:08.454Z,-59
2022-09-17T05:41:14.709Z,-59
2022-09-17T05:42:21.108Z,-59
2022-09-17T05:43:27.322Z,-60
2022-09-17T05:44:33.647Z,-59
2022-09-17T05:45:39.903Z,-60
2022-09-17T05:46:45.184Z,-59
2022-09-17T05:47:51.335Z,-59
2022-09-17T05:48:57.752Z,-59
2022-09-17T05:50:03.999Z,-59
2022-09-17T05:51:10.294Z,-59
2022-09-17T05:52:16.508Z,-59
2022-09-17T05:53:22.737Z,-59
2022-09-17T05:54:28.160Z,-59
2022-09-17T05:55:33.301Z,-59
2022-09-17T05:56:38.623Z,-60
2022-09-17T05:57:43.971Z,-59
2022-09-17T05:58:49.161Z,-60
2022-09-17T05:59:54.451Z,-60
2022-09-17T06:01:00.836Z,-58
2022-09-17T06:02:07.001Z,-59
2022-09-17T06:03:13.384Z,-60
2022-09-17T06:04:19.678Z,-59
2022-09-17T06:05:25.833Z,-59
2022-09-17T06:06:32.204Z,-59
2022-09-17T06:07:38.451Z,-59
2022-09-17T06:08:44.648Z,-59
2022-09-17T06:09:50.975Z,-59
2022-09-17T06:10:57.286Z,-59
2022-09-17T06:12:03.597Z,-59
2022-09-17T06:13:09.798Z,-59
2022-09-17T06:14:15.139Z,-59
2022-09-17T06:15:21.406Z,-59
2022-09-17T06:16:27.697Z,-59
2022-09-17T06:17:33.953Z,-60
2022-09-17T06:18:40.211Z,-59
2022-09-17T06:19:46.374Z,-59
2022-09-17T06:20:52.698Z,-59
2022-09-17T06:21:57.948Z,-59
2022-09-17T06:23:03.265Z,-57
2022-09-17T06:24:09.648Z,-61
2022-09-17T06:25:15.782Z,-59
2022-09-17T06:26:21.212Z,-59
2022-09-17T06:27:26.488Z,-59
2022-09-17T06:28:32.780Z,-60
2022-09-17T06:29:38.900Z,-59
2022-09-17T06:30:45.317Z,-59
2022-09-17T06:31:51.600Z,-59
2022-09-17T06:32:57.848Z,-59
2022-09-17T06:34:04.117Z,-59
2022-09-17T06:35:10.360Z,-59
2022-09-17T06:36:16.638Z,-59
2022-09-17T06:37:22.817Z,-58
2022-09-17T06:38:29.074Z,-60
2022-09-17T06:39:35.512Z,-59
2022-09-17T06:40:41.751Z,-59
2022-09-17T06:41:46.907Z,-59
2022-09-17T06:42:53.229Z,-57
2022-09-17T06:43:59.542Z,-59
2022-09-17T06:45:05.734Z,-57
2022-09-17T06:46:12.006Z,-58
2022-09-17T06:47:18.273Z,-58
2022-09-17T06:48:24.559Z,-59
2022-09-17T06:49:29.854Z,-57
2022-09-17T06:50:35.194Z,-59
2022-09-17T06:51:40.433Z,-59
2022-09-17T06:52:45.808Z,-59
2022-09-17T06:53:52.050Z,-59
2022-09-17T06:54:58.276Z,-60
2022-09-17T06:56:04.553Z,-59
2022-09-17T06:57:10.879Z,-59
2022-09-17T06:58:17.093Z,-59
2022-09-17T06:59:23.362Z,-59
2022-09-17T07:00:29.630Z,-59
2022-09-17T07:01:35.909Z,-59
2022-09-17T07:02:42.171Z,-59
2022-09-17T07:03:48.444Z,-59
2022-09-17T07:04:54.713Z,-59
2022-09-17T07:06:01.006Z,-59
2022-09-17T07:07:06.296Z,-59
2022-09-17T07:08:12.549Z,-59
2022-09-17T07:09:18.821Z,-59
2022-09-17T07:10:25.092Z,-58
2022-09-17T07:11:31.403Z,-59
2022-09-17T07:12:37.682Z,-59
2022-09-17T07:13:43.922Z,-59
2022-09-17T07:14:49.207Z,-59
2022-09-17T07:15:54.499Z,-59
2022-09-17T07:16:59.797Z,-59
2022-09-17T07:18:05.093Z,-59
2022-09-17T07:19:11.357Z,-59
2022-09-17T07:20:17.657Z,-59
2022-09-17T07:21:23.938Z,-58
2022-09-17T07:22:30.169Z,-60
2022-09-17T07:23:36.443Z,-59
2022-09-17T07:24:42.720Z,-60
2022-09-17T07:25:48.986Z,-59
2022-09-17T07:26:55.295Z,-59
2022-09-17T07:28:01.540Z,-59
2022-09-17T07:29:07.883Z,-59
2022-09-17T07:30:14.077Z,-58
2022-09-17T07:31:20.350Z,-59
2022-09-17T07:32:25.647Z,-59
2022-09-17T07:33:31.907Z,-59
2022-09-17T07:34:38.185Z,-59
2022-09-17T07:35:44.482Z,-59
2022-09-17T07:36:50.735Z,-58
2022-09-17T07:37:57.005Z,-59
2022-09-17T07:39:03.271Z,-59
2022-09-17T07:40:08.568Z,-59
2022-09-17T07:41:13.855Z,-58
2022-09-17T07:42:19.161Z,-59
2022-09-17T07:43:24.448Z,-59
2022-09-17T07:44:30.723Z,-59
2022-09-17T07:45:37.006Z,-59
2022-09-17T07:46:43.270Z,-59
2022-09-17T07:47:49.549Z,-57
2022-09-17T07:48:55.807Z,-59
2022-09-17T07:50:02.082Z,-59
2022-09-17T07:51:08.357Z,-59
2022-09-17T07:52:14.630Z,-60
2022-09-17T07:53:20.895Z,-60
2022-09-17T07:54:27.174Z,-58
2022-09-17T07:55:33.444Z,-58
2022-09-17T07:56:39.712Z,-58
2022-09-17T07:57:45.001Z,-59
2022-09-17T07:58:51.274Z,-59
2022-09-17T07:59:57.550Z,-59
2022-09-17T08:01:03.822Z,-59
2022-09-17T08:02:10.095Z,-59
2022-09-17T08:03:16.371Z,-59
2022-09-17T08:04:22.644Z,-58
2022-09-17T08:05:28.903Z,-59
2022-09-17T08:06:35.178Z,-59
2022-09-17T08:07:41.456Z,-59
2022-09-17T08:08:47.722Z,-59
2022-09-17T08:09:53.060Z,-58
2022-09-17T08:10:58.312Z,-59
2022-09-17T08:12:03.636Z,-64
2022-09-17T08:13:08.903Z,-59
2022-09-17T08:14:15.176Z,-59
2022-09-17T08:15:21.458Z,-60
2022-09-17T08:16:27.713Z,-59
2022-09-17T08:17:33.990Z,-59
2022-09-17T08:18:40.260Z,-59
2022-09-17T08:19:46.534Z,-59
2022-09-17T08:20:52.812Z,-59
2022-09-17T08:21:59.074Z,-59
2022-09-17T08:23:05.349Z,-59
2022-09-17T08:24:11.627Z,-59
2022-09-17T08:25:17.893Z,-59
2022-09-17T08:26:24.186Z,-59
2022-09-17T08:27:29.457Z,-56
2022-09-17T08:28:35.734Z,-60
2022-09-17T08:29:42.007Z,-58
2022-09-17T08:30:48.264Z,-56
2022-09-17T08:31:54.610Z,-58
2022-09-17T08:33:00.839Z,-58
2022-09-17T08:34:07.084Z,-58
2022-09-17T08:35:12.395Z,-55
2022-09-17T08:36:17.752Z,-57
2022-09-17T08:37:23.960Z,-57
2022-09-17T08:38:30.213Z,-56
2022-09-17T08:39:36.485Z,-56
2022-09-17T08:40:42.778Z,-57
2022-09-17T08:41:49.040Z,-57
2022-09-17T08:42:55.304Z,-57
2022-09-17T08:44:01.589Z,-57
2022-09-17T08:45:07.849Z,-56
2022-09-17T08:46:14.123Z,-57
2022-09-17T08:47:20.394Z,-56
2022-09-17T08:48:26.750Z,-58
2022-09-17T08:49:32.934Z,-57
2022-09-17T08:50:38.231Z,-56
2022-09-17T08:51:44.553Z,-57
2022-09-17T08:52:50.769Z,-58
2022-09-17T08:53:57.046Z,-58
2022-09-17T08:55:03.390Z,-57
2022-09-17T08:56:09.585Z,-56
2022-09-17T08:57:15.903Z,-59
2022-09-17T08:58:21.168Z,-59
2022-09-17T08:59:26.486Z,-56
2022-09-17T09:00:31.754Z,-58
2022-09-17T09:01:37.090Z,-58
2022-09-17T09:02:42.401Z,-57
2022-09-17T09:03:47.637Z,-57
2022-09-17T09:04:53.905Z,-58
2022-09-17T09:06:00.211Z,-59
2022-09-17T09:07:06.452Z,-58
2022-09-17T09:08:12.713Z,-59
2022-09-17T09:09:18.991Z,-58
2022-09-17T09:10:25.258Z,-56
2022-09-17T09:11:31.530Z,-58
2022-09-17T09:12:36.817Z,-59
2022-09-17T09:13:43.093Z,-58
2022-09-17T09:14:49.382Z,-58
2022-09-17T09:15:55.644Z,-59
2022-09-17T09:17:01.913Z,-57
2022-09-17T09:18:08.179Z,-59
2022-09-17T09:19:14.451Z,-58
2022-09-17T09:20:20.735Z,-59
2022-09-17T09:21:27.000Z,-58
2022-09-17T09:22:33.274Z,-59
2022-09-17T09:23:39.545Z,-58
2022-09-17T09:24:45.815Z,-59
2022-09-17T09:25:51.118Z,-58
2022-09-17T09:26:56.403Z,-59
2022-09-17T09:28:02.673Z,-58
2022-09-17T09:29:07.969Z,-59
2022-09-17T09:30:13.269Z,-59
2022-09-17T09:31:19.531Z,-59
2022-09-17T09:32:25.804Z,-59
2022-09-17T09:33:32.078Z,-59
2022-09-17T09:34:38.348Z,-59
2022-09-17T09:35:44.620Z,-59
2022-09-17T09:36:51.010Z,-59
2022-09-17T09:37:57.165Z,-58
2022-09-17T09:39:03.432Z,-57
2022-09-17T09:40:09.708Z,-59
2022-09-17T09:41:16.060Z,-59
2022-09-17T09:42:22.291Z,-59
2022-09-17T09:43:28.525Z,-59
2022-09-17T09:44:33.814Z,-59
2022-09-17T09:45:40.094Z,-59
2022-09-17T09:46:46.373Z,-59
2022-09-17T09:47:52.628Z,-59
2022-09-17T09:48:58.902Z,-59
2022-09-17T09:50:05.176Z,-60
2022-09-17T09:51:11.449Z,-59
2022-09-17T09:52:16.765Z,-61
2022-09-17T09:53:22.159Z,-59
2022-09-17T09:54:28.415Z,-61
2022-09-17T09:55:33.691Z,-59
2022-09-17T09:56:39.993Z,-59
2022-09-17T09:57:45.317Z,-60
2022-09-17T09:58:51.587Z,-59
2022-09-17T09:59:57.795Z,-59
2022-09-17T10:01:03.976Z,-59
2022-09-17T10:02:10.264Z,-59
2022-09-17T10:03:16.636Z,-60
2022-09-17T10:04:22.835Z,-59
2022-09-17T10:05:29.079Z,-61
2022-09-17T10:06:35.379Z,-60
2022-09-17T10:07:41.610Z,-59
2022-09-17T10:08:47.929Z,-60
2022-09-17T10:09:54.156Z,-60
2022-09-17T10:11:00.464Z,-59
2022-09-17T10:12:05.802Z,-60
2022-09-17T10:13:12.011Z,-59
2022-09-17T10:14:18.282Z,-59
2022-09-17T10:15:24.537Z,-58
2022-09-17T10:16:30.810Z,-59
2022-09-17T10:17:37.132Z,-57
2022-09-17T10:18:42.376Z,-57
2022-09-17T10:19:47.671Z,-58
2022-09-17T10:20:52.973Z,-58
2022-09-17T10:21:58.261Z,-57
2022-09-17T10:23:04.586Z,-57
2022-09-17T10:24:10.809Z,-57
2022-09-17T10:25:17.136Z,-56
2022-09-17T10:26:23.368Z,-57
2022-09-17T10:27:29.617Z,-56
2022-09-17T10:28:35.891Z,-57
2022-09-17T10:29:42.156Z,-56
2022-09-17T10:30:48.438Z,-56
2022-09-17T10:31:54.723Z,-58
2022-09-17T10:33:00.997Z,-56
2022-09-17T10:34:07.292Z,-56
2022-09-17T10:35:13.521Z,-54
2022-09-17T10:36:18.804Z,-55
2022-09-17T10:37:25.107Z,-55
2022-09-17T10:38:31.351Z,-57
2022-09-17T10:39:37.625Z,-57
2022-09-17T10:40:43.892Z,-56
2022-09-17T10:41:50.163Z,-56
2022-09-17T10:42:56.435Z,-56
2022-09-17T10:44:01.735Z,-56
2022-09-17T10:45:07.026Z,-57
2022-09-17T10:46:13.298Z,-56
2022-09-17T10:47:19.576Z,-56
2022-09-17T10:48:25.836Z,-56
2022-09-17T10:49:32.114Z,-56
2022-09-17T10:50:38.394Z,-56
2022-09-17T10:51:44.654Z,-56
2022-09-17T10:52:50.929Z,-56
2022-09-17T10:53:57.203Z,-56
2022-09-17T10:55:03.551Z,-56
2022-09-17T10:56:09.740Z,-56
2022-09-17T10:57:16.017Z,-56
2022-09-17T10:58:22.287Z,-56
2022-09-17T10:59:27.582Z,-58
2022-09-17T11:00:33.855Z,-59
2022-09-17T11:01:40.123Z,-58
2022-09-17T11:02:46.397Z,-59
2022-09-17T11:03:52.673Z,-59
2022-09-17T11:04:58.944Z,-59
2022-09-17T11:06:05.212Z,-59
2022-09-17T11:07:10.526Z,-59
2022-09-17T11:08:15.802Z,-59
2022-09-17T11:09:21.110Z,-59
2022-09-17T11:10:26.384Z,-59
2022-09-17T11:11:32.684Z,-58
2022-09-17T11:12:38.930Z,-59
2022-09-17T11:13:45.199Z,-59
2022-09-17T11:14:51.478Z,-60
2022-09-17T11:15:57.754Z,-56
2022-09-17T11:17:04.018Z,-59
2022-09-17T11:18:10.287Z,-59
2022-09-17T11:19:16.567Z,-58
2022-09-17T11:20:22.834Z,-59
2022-09-17T11:21:29.117Z,-59
2022-09-17T11:22:35.377Z,-59
2022-09-17T11:23:41.653Z,-59
2022-09-17T11:24:46.941Z,-59
2022-09-17T11:25:53.209Z,-59
2022-09-17T11:26:59.483Z,-59
2022-09-17T11:28:05.769Z,-60
2022-09-17T11:29:12.028Z,-59
2022-09-17T11:30:18.295Z,-59
2022-09-17T11:31:24.571Z,-59
2022-09-17T11:32:29.869Z,-59
2022-09-17T11:33:35.160Z,-59
2022-09-17T11:34:40.459Z,-59
2022-09-17T11:35:46.735Z,-59
2022-09-17T11:36:52.019Z,-60
2022-09-17T11:37:58.292Z,-58
2022-09-17T11:39:04.576Z,-59
2022-09-17T11:40:10.843Z,-60
2022-09-17T11:41:17.117Z,-60
2022-09-17T11:42:23.376Z,-59
2022-09-17T11:43:29.646Z,-60
2022-09-17T11:44:35.934Z,-61
2022-09-17T11:45:42.194Z,-60
2022-09-17T11:46:48.474Z,-61
2022-09-17T11:47:54.742Z,-60
2022-09-17T11:49:01.021Z,-61
2022-09-17T11:50:07.279Z,-61
2022-09-17T11:51:12.577Z,-59
2022-09-17T11:52:18.840Z,-60
2022-09-17T11:53:25.113Z,-59
2022-09-17T11:54:31.388Z,-60
2022-09-17T11:55:37.660Z,-59
2022-09-17T11:56:43.927Z,-61
2022-09-17T11:57:49.228Z,-60
2022-09-17T11:58:54.526Z,-59
2022-09-17T11:59:59.819Z,-60
2022-09-17T12:01:05.105Z,-59
2022-09-17T12:02:11.385Z,-59
2022-09-17T12:03:17.649Z,-60
2022-09-17T12:04:23.923Z,-59
2022-09-17T12:05:30.197Z,-59
2022-09-17T12:06:36.464Z,-60
2022-09-17T12:07:42.739Z,-59
2022-09-17T12:08:49.008Z,-59
2022-09-17T12:09:55.281Z,-59
2022-09-17T12:11:01.550Z,-59
2022-09-17T12:12:07.828Z,-58
2022-09-17T12:13:14.110Z,-58
2022-09-17T12:14:20.369Z,-57
2022-09-17T12:15:25.655Z,-56
2022-09-17T12:16:31.925Z,-58
2022-09-17T12:17:38.207Z,-57
2022-09-17T12:18:44.474Z,-57
2022-09-17T12:19:50.749Z,-58
2022-09-17T12:20:57.022Z,-56
2022-09-17T12:22:03.308Z,-56
2022-09-17T12:23:08.591Z,-57
2022-09-17T12:24:13.877Z,-56
2022-09-17T12:25:19.216Z,-56
2022-09-17T12:26:24.470Z,-57
2022-09-17T12:27:30.741Z,-56
2022-09-17T12:28:37.023Z,-57
2022-09-17T12:29:43.279Z,-56
2022-09-17T12:30:49.554Z,-56
2022-09-17T12:31:55.823Z,-56
2022-09-17T12:33:02.109Z,-56
2022-09-17T12:34:08.444Z,-56
2022-09-17T12:35:14.647Z,-56
2022-09-17T12:36:20.922Z,-56
2022-09-17T12:37:27.267Z,-56
2022-09-17T12:38:33.483Z,-55
2022-09-17T12:39:39.756Z,-55
2022-09-17T12:40:45.051Z,-56
2022-09-17T12:41:51.289Z,-55
2022-09-17T12:42:57.569Z,-55
2022-09-17T12:44:03.882Z,-56
2022-09-17T12:45:10.105Z,-56
2022-09-17T12:46:16.384Z,-56
2022-09-17T12:47:22.669Z,-54
2022-09-17T12:48:27.954Z,-56
2022-09-17T12:49:33.239Z,-56
2022-09-17T12:50:39.506Z,-56
2022-09-17T12:51:45.797Z,-56
2022-09-17T12:52:52.053Z,-56
2022-09-17T12:53:57.350Z,-55
2022-09-17T12:55:03.617Z,-55
2022-09-17T12:56:09.900Z,-55
2022-09-17T12:57:16.190Z,-53
2022-09-17T12:58:22.512Z,-56
2022-09-17T12:59:28.716Z,-55
2022-09-17T13:00:34.979Z,-55
2022-09-17T13:01:41.265Z,-56
2022-09-17T13:02:47.521Z,-55
2022-09-17T13:03:53.793Z,-56
2022-09-17T13:05:00.068Z,-55
2022-09-17T13:06:06.339Z,-55
2022-09-17T13:07:12.613Z,-55
2022-09-17T13:08:17.897Z,-56
2022-09-17T13:09:24.242Z,-55
2022-09-17T13:10:30.587Z,-53
2022-09-17T13:11:35.875Z,-53
2022-09-17T13:12:41.030Z,-54
2022-09-17T13:13:46.498Z,-54
2022-09-17T13:14:51.760Z,-54
2022-09-17T13:15:58.002Z,-54
2022-09-17T13:17:04.309Z,-55
2022-09-17T13:18:09.595Z,-54
2022-09-17T13:19:14.881Z,-52
2022-09-17T13:20:21.130Z,-54
2022-09-17T13:21:27.303Z,-55
2022-09-17T13:22:33.709Z,-54
2022-09-17T13:23:39.985Z,-54
2022-09-17T13:24:46.240Z,-54
2022-09-17T13:25:52.442Z,-54
2022-09-17T13:26:58.772Z,-53
2022-09-17T13:28:05.084Z,-54
2022-09-17T13:29:11.338Z,-54
2022-09-17T13:30:17.480Z,-55
2022-09-17T13:31:23.884Z,-53
2022-09-17T13:32:30.131Z,-54
2022-09-17T13:33:35.308Z,-54
2022-09-17T13:34:41.717Z,-53
2022-09-17T13:35:47.978Z,-55
2022-09-17T13:36:54.255Z,-54
2022-09-17T13:38:00.528Z,-54
2022-09-17T13:39:06.659Z,-55
2022-09-17T13:40:13.077Z,-55
2022-09-17T13:41:18.363Z,-56
2022-09-17T13:42:23.520Z,-55
2022-09-17T13:43:29.923Z,-54
2022-09-17T13:44:36.207Z,-55
2022-09-17T13:45:42.342Z,-56
2022-09-17T13:46:48.680Z,-55
2022-09-17T13:47:55.010Z,-56
2022-09-17T13:49:01.298Z,-56
2022-09-17T13:50:07.503Z,-56
2022-09-17T13:51:13.841Z,-57
2022-09-17T13:52:20.125Z,-56
2022-09-17T13:53:26.377Z,-56
2022-09-17T13:54:32.657Z,-57
2022-09-17T13:55:38.816Z,-56
2022-09-17T13:56:44.252Z,-57
2022-09-17T13:57:50.345Z,-56
2022-09-17T13:58:56.757Z,-56
2022-09-17T14:00:03.023Z,-56
2022-09-17T14:01:09.161Z,-57
2022-09-17T14:02:15.595Z,-57
2022-09-17T14:03:21.804Z,-57
2022-09-17T14:04:27.158Z,-57
2022-09-17T14:05:32.395Z,-58
2022-09-17T14:06:38.685Z,-58
2022-09-17T14:07:44.008Z,-59
2022-09-17T14:08:49.299Z,-58
2022-09-17T14:09:54.632Z,-57
2022-09-17T14:10:59.889Z,-56
2022-09-17T14:12:06.022Z,-56
2022-09-17T14:13:12.482Z,-56
2022-09-17T14:14:18.714Z,-57
2022-09-17T14:15:24.987Z,-58
2022-09-17T14:16:31.245Z,-57
2022-09-17T14:17:37.506Z,-56
2022-09-17T14:18:43.802Z,-56
2022-09-17T14:19:50.066Z,-56
2022-09-17T14:20:56.341Z,-57
2022-09-17T14:22:02.631Z,-57
2022-09-17T14:23:08.867Z,-59
2022-09-17T14:24:15.166Z,-58
2022-09-17T14:25:20.420Z,-59
2022-09-17T14:26:26.627Z,-57
2022-09-17T14:27:32.987Z,-57
2022-09-17T14:28:39.270Z,-57
2022-09-17T14:29:45.390Z,-56
2022-09-17T14:30:51.729Z,-58
2022-09-17T14:31:58.099Z,-56
2022-09-17T14:33:03.384Z,-57
2022-09-17T14:34:08.519Z,-57
2022-09-17T14:35:14.939Z,-58
2022-09-17T14:36:20.231Z,-58
2022-09-17T14:37:25.524Z,-56
2022-09-17T14:38:31.814Z,-58
2022-09-17T14:39:38.070Z,-58
2022-09-17T14:40:44.345Z,-58
2022-09-17T14:41:50.628Z,-59
2022-09-17T14:42:56.893Z,-58
2022-09-17T14:44:03.137Z,-59
2022-09-17T14:45:09.408Z,-59
2022-09-17T14:46:15.553Z,-59
2022-09-17T14:47:21.957Z,-59
2022-09-17T14:48:28.238Z,-59
2022-09-17T14:49:34.526Z,-59
2022-09-17T14:50:40.792Z,-59
2022-09-17T14:51:46.077Z,-57
2022-09-17T14:52:52.345Z,-60
2022-09-17T14:53:58.614Z,-60
2022-09-17T14:55:04.884Z,-59
2022-09-17T14:56:11.162Z,-59
2022-09-17T14:57:17.423Z,-59
2022-09-17T14:58:23.714Z,-60
2022-09-17T14:59:29.006Z,-60
2022-09-17T15:00:34.301Z,-60
2022-09-17T15:01:39.449Z,-59
2022-09-17T15:02:44.737Z,-59
2022-09-17T15:03:51.143Z,-59
2022-09-17T15:04:57.418Z,-59
2022-09-17T15:06:03.701Z,-60
2022-09-17T15:07:09.976Z,-59
2022-09-17T15:08:16.222Z,-60
2022-09-17T15:09:22.525Z,-59
2022-09-17T15:10:28.766Z,-59